createdAt,value
2023-03-21T00:00:31.983Z,100125.41
2023-03-21T00:03:02.234Z,100120.34
2023-03-21T00:05:30.076Z,100124.91
2023-03-21T00:07:57.406Z,100117.31
2023-03-21T00:10:39.088Z,100117.84
2023-03-21T00:13:07.914Z,100114.94
2023-03-21T00:15:48.441Z,100110.91
2023-03-21T00:18:23.863Z,100111.97
2023-03-21T00:21:33.650Z,100109.59
2023-03-21T00:23:49.690Z,100116.44
2023-03-21T00:26:17.031Z,100109.31
2023-03-21T00:28:47.860Z,100112.25
2023-03-21T00:31:23.258Z,100121.84
2023-03-21T00:33:50.599Z,100120.31
2023-03-21T00:36:20.570Z,100119.22
2023-03-21T00:38:48.513Z,100116.00
2023-03-21T00:41:38.959Z,100117.03
2023-03-21T00:44:09.520Z,100114.34
2023-03-21T00:46:45.472Z,100112.56
2023-03-21T00:49:17.326Z,100116.75
2023-03-21T00:51:44.695Z,100117.91
2023-03-21T00:54:13.155Z,100119.16
2023-03-21T00:56:40.901Z,100113.25
2023-03-21T00:59:10.908Z,100108.13
2023-03-21T01:01:39.703Z,100114.94
2023-03-21T01:04:13.385Z,100113.25
2023-03-21T01:06:43.141Z,100113.28
2023-03-21T01:09:16.730Z,100103.91
2023-03-21T01:11:50.530Z,100098.31
2023-03-21T01:14:23.974Z,100091.91
2023-03-21T01:16:52.805Z,100100.50
2023-03-21T01:19:29.158Z,100100.47
2023-03-21T01:21:59.721Z,100094.06
2023-03-21T01:24:27.375Z,100099.13
2023-03-21T01:27:13.903Z,100107.94
2023-03-21T01:30:00.448Z,100100.28
2023-03-21T01:32:47.402Z,100099.75
2023-03-21T01:35:47.992Z,100094.19
2023-03-21T01:38:36.798Z,100092.00
2023-03-21T01:41:41.976Z,100096.53
2023-03-21T01:44:16.347Z,100097.63
2023-03-21T01:47:00.412Z,100093.16
2023-03-21T01:49:35.911Z,100107.56
2023-03-21T01:52:15.201Z,100099.03
2023-03-21T01:54:47.902Z,100095.25
2023-03-21T01:57:30.016Z,100102.44
2023-03-21T02:00:03.220Z,100096.72
2023-03-21T02:02:31.409Z,100100.09
2023-03-21T02:05:02.891Z,100095.06
2023-03-21T02:07:36.711Z,100093.47
2023-03-21T02:10:06.963Z,100098.19
2023-03-21T02:12:35.082Z,100105.16
2023-03-21T02:15:02.509Z,100095.88
2023-03-21T02:17:32.762Z,100103.31
2023-03-21T02:20:15.899Z,100100.16
2023-03-21T02:22:52.312Z,100104.97
2023-03-21T02:25:34.449Z,100092.47
2023-03-21T02:28:10.712Z,100094.88
2023-03-21T02:31:02.252Z,100095.41
2023-03-21T02:33:37.253Z,100085.28
2023-03-21T02:36:14.231Z,100079.66
2023-03-21T02:39:14.546Z,100081.50
2023-03-21T02:42:07.592Z,100083.66
2023-03-21T02:44:47.110Z,100082.06
2023-03-21T02:47:23.854Z,100080.47
2023-03-21T02:50:15.332Z,100083.13
2023-03-21T02:52:44.407Z,100086.34
2023-03-21T02:55:15.995Z,100086.31
2023-03-21T02:57:45.399Z,100087.41
2023-03-21T03:00:20.027Z,100074.09
2023-03-21T03:03:02.599Z,100076.19
2023-03-21T03:05:37.189Z,100070.28
2023-03-21T03:08:53.110Z,100068.72
2023-03-21T03:11:33.247Z,100069.53
2023-03-21T03:14:35.753Z,100070.88
2023-03-21T03:16:59.749Z,100074.84
2023-03-21T03:19:32.770Z,100076.22
2023-03-21T03:22:10.827Z,100073.81
2023-03-21T03:24:45.729Z,100069.81
2023-03-21T03:27:23.481Z,100067.69
2023-03-21T03:29:52.369Z,100079.94
2023-03-21T03:32:27.562Z,100080.22
2023-03-21T03:34:56.021Z,100082.06
2023-03-21T03:37:32.852Z,100087.06
2023-03-21T03:40:06.609Z,100084.63
2023-03-21T03:42:37.033Z,100079.63
2023-03-21T03:45:06.461Z,100086.38
2023-03-21T03:48:02.410Z,100093.59
2023-03-21T03:50:42.195Z,100082.63
2023-03-21T03:53:23.802Z,100086.91
2023-03-21T03:55:52.165Z,100089.84
2023-03-21T03:58:23.756Z,100089.59
2023-03-21T04:00:54.051Z,100093.88
2023-03-21T04:03:25.099Z,100099.22
2023-03-21T04:05:52.602Z,100094.97
2023-03-21T04:08:19.913Z,100090.69
2023-03-21T04:10:47.810Z,100093.88
2023-03-21T04:13:18.127Z,100088.78
2023-03-21T04:15:46.083Z,100092.25
2023-03-21T04:18:14.191Z,100090.09
2023-03-21T04:20:41.896Z,100091.13
2023-03-21T04:23:09.315Z,100078.38
2023-03-21T04:25:42.403Z,100075.41
2023-03-21T04:28:15.111Z,100073.56
2023-03-21T04:30:54.950Z,100067.69
2023-03-21T04:33:27.926Z,100075.75
2023-03-21T04:35:55.500Z,100073.75
2023-03-21T04:38:25.116Z,100076.53
2023-03-21T04:40:52.751Z,100077.31
2023-03-21T04:43:20.493Z,100085.41
2023-03-21T04:45:47.928Z,100071.97
2023-03-21T04:48:15.844Z,100070.81
2023-03-21T04:50:44.165Z,100073.81
2023-03-21T04:53:12.789Z,100081.38
2023-03-21T04:55:40.853Z,100084.13
2023-03-21T04:58:08.742Z,100087.41
2023-03-21T05:00:36.594Z,100080.75
2023-03-21T05:03:06.553Z,100081.28
2023-03-21T05:05:37.444Z,100076.97
2023-03-21T05:08:06.444Z,100083.84
2023-03-21T05:10:34.408Z,100078.66
2023-03-21T05:13:02.344Z,100078.84
2023-03-21T05:15:30.367Z,100080.56
2023-03-21T05:17:58.263Z,100076.94
2023-03-21T05:20:26.386Z,100076.97
2023-03-21T05:22:53.796Z,100082.34
2023-03-21T05:25:21.194Z,100084.00
2023-03-21T05:27:48.754Z,100094.06
2023-03-21T05:30:17.987Z,100089.66
2023-03-21T05:32:46.108Z,100086.88
2023-03-21T05:35:13.652Z,100081.50
2023-03-21T05:37:40.881Z,100091.25
2023-03-21T05:40:08.902Z,100093.88
2023-03-21T05:42:36.220Z,100095.50
2023-03-21T05:45:04.106Z,100098.13
2023-03-21T05:47:31.588Z,100084.56
2023-03-21T05:49:58.965Z,100077.63
2023-03-21T05:52:30.066Z,100082.78
2023-03-21T05:54:57.524Z,100074.44
2023-03-21T05:57:25.339Z,100075.50
2023-03-21T05:59:53.276Z,100078.19
2023-03-21T06:02:20.877Z,100084.56
2023-03-21T06:05:00.842Z,100104.53
2023-03-21T06:07:31.378Z,100110.84
2023-03-21T06:09:59.594Z,100122.09
2023-03-21T06:12:30.211Z,100133.34
2023-03-21T06:15:03.383Z,100127.72
2023-03-21T06:17:31.851Z,100126.28
2023-03-21T06:19:59.275Z,100131.97
2023-03-21T06:22:28.309Z,100139.66
2023-03-21T06:24:55.817Z,100143.38
2023-03-21T06:27:26.262Z,100140.47
2023-03-21T06:29:53.963Z,100138.13
2023-03-21T06:32:22.042Z,100148.72
2023-03-21T06:34:56.339Z,100147.03
2023-03-21T06:37:27.149Z,100147.25
2023-03-21T06:39:57.727Z,100149.88
2023-03-21T06:42:25.071Z,100150.75
2023-03-21T06:44:56.528Z,100155.94
2023-03-21T06:47:23.960Z,100153.38
2023-03-21T06:49:51.906Z,100153.78
2023-03-21T06:52:21.847Z,100146.53
2023-03-21T06:54:55.557Z,100139.72
2023-03-21T06:57:23.028Z,100143.78
2023-03-21T06:59:50.357Z,100140.28
2023-03-21T07:02:17.996Z,100139.00
2023-03-21T07:04:47.827Z,100139.63
2023-03-21T07:07:15.152Z,100139.47
2023-03-21T07:09:42.795Z,100135.59
2023-03-21T07:12:10.277Z,100131.13
2023-03-21T07:14:37.671Z,100126.47
2023-03-21T07:17:05.044Z,100128.50
2023-03-21T07:19:35.200Z,100123.16
2023-03-21T07:22:02.754Z,100122.00
2023-03-21T07:24:30.515Z,100113.09
2023-03-21T07:26:58.032Z,100113.47
2023-03-21T07:29:25.848Z,100113.97
2023-03-21T07:31:53.337Z,100105.31
2023-03-21T07:34:21.414Z,100109.94
2023-03-21T07:36:55.094Z,100110.28
2023-03-21T07:39:27.240Z,100105.09
2023-03-21T07:42:03.563Z,100110.59
2023-03-21T07:44:31.084Z,100106.94
2023-03-21T07:47:01.221Z,100124.75
2023-03-21T07:49:31.877Z,100112.22
2023-03-21T07:52:00.105Z,100115.53
2023-03-21T07:54:28.405Z,100117.75
2023-03-21T07:56:56.638Z,100110.22
2023-03-21T07:59:24.672Z,100113.28
2023-03-21T08:01:52.272Z,100114.81
2023-03-21T08:04:19.688Z,100116.56
2023-03-21T08:06:52.140Z,100118.53
2023-03-21T08:09:25.558Z,100127.88
2023-03-21T08:11:55.988Z,100129.94
2023-03-21T08:14:25.912Z,100135.06
2023-03-21T08:16:56.837Z,100139.50
2023-03-21T08:19:24.314Z,100136.31
2023-03-21T08:21:58.640Z,100138.88
2023-03-21T08:24:26.372Z,100141.25
2023-03-21T08:26:56.640Z,100142.06
2023-03-21T08:29:24.473Z,100145.22
2023-03-21T08:31:55.653Z,100140.28
2023-03-21T08:34:23.139Z,100143.16
2023-03-21T08:36:53.705Z,100135.97
2023-03-21T08:39:26.642Z,100136.78
2023-03-21T08:41:54.079Z,100141.47
2023-03-21T08:44:27.424Z,100139.25
2023-03-21T08:46:58.065Z,100137.69
2023-03-21T08:49:25.571Z,100137.53
2023-03-21T08:51:58.550Z,100145.53
2023-03-21T08:54:25.913Z,100143.63
2023-03-21T08:56:53.443Z,100126.63
2023-03-21T08:59:27.056Z,100137.25
2023-03-21T09:01:57.220Z,100136.19
2023-03-21T09:04:28.422Z,100127.25
2023-03-21T09:07:05.469Z,100122.97
2023-03-21T09:09:37.038Z,100129.81
2023-03-21T09:12:04.540Z,100122.78
2023-03-21T09:14:32.294Z,100121.41
2023-03-21T09:17:05.943Z,100119.56
2023-03-21T09:19:33.617Z,100123.03
2023-03-21T09:22:03.770Z,100120.13
2023-03-21T09:24:34.579Z,100109.84
2023-03-21T09:27:05.326Z,100098.69
2023-03-21T09:29:39.187Z,100102.16
2023-03-21T09:32:06.885Z,100091.22
2023-03-21T09:34:37.528Z,100094.66
2023-03-21T09:37:05.742Z,100087.31
2023-03-21T09:39:33.135Z,100085.63
2023-03-21T09:42:07.689Z,100088.09
2023-03-21T09:45:00.642Z,100080.41
2023-03-21T09:47:37.107Z,100083.13
2023-03-21T09:50:32.430Z,100089.09
2023-03-21T09:53:20.567Z,100085.28
2023-03-21T09:55:48.119Z,100080.44
2023-03-21T09:58:34.407Z,100079.84
2023-03-21T10:01:17.930Z,100084.84
2023-03-21T10:03:45.781Z,100080.66
2023-03-21T10:06:17.426Z,100084.00
2023-03-21T10:08:48.794Z,100091.44
2023-03-21T10:11:24.296Z,100078.69
2023-03-21T10:13:59.753Z,100081.53
2023-03-21T10:16:34.625Z,100077.16
2023-03-21T10:19:07.522Z,100073.28
2023-03-21T10:21:59.287Z,100068.84
2023-03-21T10:24:30.003Z,100070.94
2023-03-21T10:26:57.718Z,100068.06
2023-03-21T10:29:39.305Z,100062.69
2023-03-21T10:32:10.385Z,100067.19
2023-03-21T10:34:41.891Z,100068.00
2023-03-21T10:37:13.867Z,100066.88
2023-03-21T10:39:47.898Z,100059.56
2023-03-21T10:42:20.134Z,100069.78
2023-03-21T10:44:50.169Z,100067.97
2023-03-21T10:47:28.644Z,100057.34
2023-03-21T10:50:10.622Z,100051.81
2023-03-21T10:52:45.111Z,100054.31
2023-03-21T10:55:21.447Z,100053.06
2023-03-21T10:57:52.905Z,100053.16
2023-03-21T11:00:24.703Z,100041.75
2023-03-21T11:02:53.602Z,100042.44
2023-03-21T11:05:35.838Z,100038.00
2023-03-21T11:08:13.953Z,100048.00
2023-03-21T11:11:05.087Z,100043.00
2023-03-21T11:13:40.299Z,100032.22
2023-03-21T11:16:23.379Z,100038.22
2023-03-21T11:18:56.715Z,100032.72
2023-03-21T11:21:25.358Z,100030.25
2023-03-21T11:23:57.316Z,100031.91
2023-03-21T11:26:31.248Z,100023.19
2023-03-21T11:28:59.102Z,100024.31
2023-03-21T11:31:44.245Z,100031.31
2023-03-21T11:34:26.014Z,100015.09
2023-03-21T11:36:58.753Z,100009.03
2023-03-21T11:39:38.081Z,99998.72
2023-03-21T11:42:25.203Z,99998.84
2023-03-21T11:45:13.539Z,100009.41
2023-03-21T11:47:41.241Z,100005.66
2023-03-21T11:50:18.092Z,99991.84
2023-03-21T11:52:48.403Z,99997.53
2023-03-21T11:55:47.227Z,99983.38
2023-03-21T11:58:35.752Z,99982.41
2023-03-21T12:01:27.177Z,99982.56
2023-03-21T12:04:25.004Z,99984.66
2023-03-21T12:07:48.483Z,99970.31
2023-03-21T12:10:31.314Z,99973.28
2023-03-21T12:13:10.798Z,99970.69
2023-03-21T12:16:07.889Z,99971.06
2023-03-21T12:18:48.555Z,99966.47
2023-03-21T12:21:18.899Z,99964.44
2023-03-21T12:23:46.297Z,99949.03
2023-03-21T12:26:29.440Z,99952.88
2023-03-21T12:29:22.896Z,99948.09
2023-03-21T12:32:08.510Z,99945.03
2023-03-21T12:35:05.237Z,99938.47
2023-03-21T12:38:00.260Z,99939.47
2023-03-21T12:40:50.821Z,99936.91
2023-03-21T12:43:35.956Z,99939.16
2023-03-21T12:46:09.037Z,99933.13
2023-03-21T12:48:56.280Z,99930.41
2023-03-21T12:51:29.555Z,99925.94
2023-03-21T12:54:10.163Z,99921.78
2023-03-21T12:56:43.315Z,99914.78
2023-03-21T12:59:23.350Z,99922.53
2023-03-21T13:01:53.432Z,99917.97
2023-03-21T13:04:36.776Z,99915.69
2023-03-21T13:07:07.813Z,99916.09
2023-03-21T13:09:40.292Z,99918.63
2023-03-21T13:12:13.888Z,99913.72
2023-03-21T13:14:59.580Z,99910.00
2023-03-21T13:17:38.563Z,99911.75
2023-03-21T13:20:22.494Z,99908.91
2023-03-21T13:22:49.808Z,99910.31
2023-03-21T13:25:23.312Z,99907.44
2023-03-21T13:27:56.027Z,99906.91
2023-03-21T13:30:29.124Z,99905.09
2023-03-21T13:33:11.614Z,99904.19
2023-03-21T13:35:41.309Z,99896.16
2023-03-21T13:38:26.439Z,99898.84
2023-03-21T13:41:00.309Z,99898.09
2023-03-21T13:43:54.185Z,99891.19
2023-03-21T13:46:24.732Z,99889.16
2023-03-21T13:48:59.205Z,99883.91
2023-03-21T13:51:56.115Z,99882.66
2023-03-21T13:54:38.498Z,99887.94
2023-03-21T13:57:06.998Z,99886.34
2023-03-21T13:59:44.985Z,99894.88
2023-03-21T14:02:12.278Z,99897.59
2023-03-21T14:04:53.389Z,99892.56
2023-03-21T14:07:27.192Z,99904.69
2023-03-21T14:10:28.339Z,99897.34
2023-03-21T14:12:56.744Z,99899.91
2023-03-21T14:15:27.056Z,99907.88
2023-03-21T14:18:00.384Z,99903.63
2023-03-21T14:20:33.914Z,99905.53
2023-03-21T14:23:06.125Z,99904.94
2023-03-21T14:25:46.646Z,99900.69
2023-03-21T14:28:24.034Z,99905.59
2023-03-21T14:30:55.487Z,99899.72
2023-03-21T14:33:31.889Z,99900.22
2023-03-21T14:36:23.260Z,99891.78
2023-03-21T14:38:55.901Z,99899.94
2023-03-21T14:41:29.298Z,99900.72
2023-03-21T14:44:14.748Z,99890.84
2023-03-21T14:46:44.855Z,99890.41
2023-03-21T14:49:32.124Z,99892.59
2023-03-21T14:52:02.222Z,99891.63
2023-03-21T14:54:31.164Z,99885.28
2023-03-21T14:57:02.402Z,99881.63
2023-03-21T14:59:32.131Z,99883.22
2023-03-21T15:02:04.776Z,99883.72
2023-03-21T15:04:32.869Z,99887.66
2023-03-21T15:07:02.875Z,99886.41
2023-03-21T15:09:33.233Z,99881.63
2023-03-21T15:12:01.784Z,99889.25
2023-03-21T15:14:34.655Z,99889.91
2023-03-21T15:17:04.335Z,99891.16
2023-03-21T15:19:35.501Z,99891.78
2023-03-21T15:22:29.265Z,99890.34
2023-03-21T15:25:02.365Z,99891.47
2023-03-21T15:27:33.200Z,99889.22
2023-03-21T15:30:00.615Z,99887.44
2023-03-21T15:32:28.773Z,99882.03
2023-03-21T15:35:06.282Z,99888.41
2023-03-21T15:37:36.632Z,99877.81
2023-03-21T15:40:28.328Z,99884.63
2023-03-21T15:43:20.867Z,99880.72
2023-03-21T15:45:56.026Z,99879.31
2023-03-21T15:48:28.684Z,99886.66
2023-03-21T15:50:56.339Z,99888.72
2023-03-21T15:53:24.986Z,99889.66
2023-03-21T15:55:57.653Z,99903.63
2023-03-21T15:58:27.515Z,99890.31
2023-03-21T16:00:57.208Z,99894.28
2023-03-21T16:03:29.265Z,99888.78
2023-03-21T16:06:12.184Z,99894.16
2023-03-21T16:09:06.556Z,99894.44
2023-03-21T16:11:40.048Z,99887.94
2023-03-21T16:14:07.686Z,99893.03
2023-03-21T16:16:35.487Z,99887.09
2023-03-21T16:19:03.524Z,99880.41
2023-03-21T16:21:32.051Z,99888.59
2023-03-21T16:23:59.736Z,99886.25
2023-03-21T16:26:37.281Z,99888.50
2023-03-21T16:29:06.069Z,99885.28
2023-03-21T16:31:35.877Z,99894.31
2023-03-21T16:34:04.075Z,99886.34
2023-03-21T16:36:40.146Z,99884.56
2023-03-21T16:39:20.972Z,99883.13
2023-03-21T16:41:49.334Z,99896.78
2023-03-21T16:44:17.015Z,99891.13
2023-03-21T16:46:45.072Z,99885.00
2023-03-21T16:49:22.267Z,99882.47
2023-03-21T16:51:53.224Z,99891.34
2023-03-21T16:54:21.109Z,99893.56
2023-03-21T16:56:58.580Z,99891.44
2023-03-21T16:59:26.404Z,99894.72
2023-03-21T17:01:53.708Z,99897.09
2023-03-21T17:04:21.018Z,99891.16
2023-03-21T17:06:51.354Z,99905.13
2023-03-21T17:09:24.760Z,99901.34
2023-03-21T17:11:52.091Z,99917.50
2023-03-21T17:14:19.530Z,99919.69
2023-03-21T17:16:47.289Z,99928.56
2023-03-21T17:19:19.920Z,99936.06
2023-03-21T17:21:47.444Z,99935.56
2023-03-21T17:24:15.335Z,99950.34
2023-03-21T17:26:42.956Z,99942.47
2023-03-21T17:29:15.713Z,99949.84
2023-03-21T17:31:43.231Z,99950.75
2023-03-21T17:34:10.560Z,99956.72
2023-03-21T17:36:40.502Z,99955.91
2023-03-21T17:39:14.398Z,99964.66
2023-03-21T17:41:42.009Z,99966.25
2023-03-21T17:44:09.613Z,99963.81
2023-03-21T17:46:37.425Z,99963.16
2023-03-21T17:49:05.784Z,99969.66
2023-03-21T17:51:33.255Z,99967.56
2023-03-21T17:54:00.680Z,99963.56
2023-03-21T17:56:30.503Z,99968.97
2023-03-21T17:59:01.446Z,99978.94
2023-03-21T18:01:29.119Z,99977.94
2023-03-21T18:03:57.742Z,99979.13
2023-03-21T18:06:26.634Z,99974.66
2023-03-21T18:08:54.803Z,99976.34
2023-03-21T18:11:25.149Z,99979.19
2023-03-21T18:14:01.258Z,99982.69
2023-03-21T18:16:34.264Z,99979.91
2023-03-21T18:19:02.010Z,99992.78
2023-03-21T18:21:32.908Z,99984.66
2023-03-21T18:24:00.461Z,99985.41
2023-03-21T18:26:27.700Z,99986.72
2023-03-21T18:29:53.523Z,99989.59
2023-03-21T18:32:04.297Z,99992.66
2023-03-21T18:34:37.526Z,99995.53
2023-03-21T18:37:08.027Z,99991.97
2023-03-21T18:39:36.388Z,99997.88
2023-03-21T18:42:06.784Z,99996.56
2023-03-21T18:44:35.232Z,99998.53
2023-03-21T18:47:09.202Z,99995.66
2023-03-21T18:52:35.023Z,100011.69
2023-03-21T18:55:06.770Z,100009.53
2023-03-21T18:57:43.318Z,100014.72
2023-03-21T19:00:17.854Z,100013.44
2023-03-21T19:03:02.943Z,100012.13
2023-03-21T19:05:53.220Z,100005.59
2023-03-21T19:08:33.872Z,100011.13
2023-03-21T19:11:16.293Z,100015.31
2023-03-21T19:13:53.017Z,100009.94
2023-03-21T19:16:56.178Z,100013.47
2023-03-21T19:19:39.395Z,100008.72
2023-03-21T19:22:09.869Z,100009.88
2023-03-21T19:25:02.167Z,100015.63
2023-03-21T19:27:52.060Z,100010.16
2023-03-21T19:30:32.071Z,100005.66
2023-03-21T19:33:05.123Z,100011.59
2023-03-21T19:36:06.166Z,100006.75
2023-03-21T19:44:16.080Z,99997.84
2023-03-21T19:46:51.101Z,100003.72
2023-03-21T19:49:42.917Z,99995.16
2023-03-21T19:52:21.791Z,100002.31
2023-03-21T19:55:01.788Z,100005.16
2023-03-21T19:57:39.297Z,100002.19
2023-03-21T20:00:07.383Z,100004.66
2023-03-21T20:02:49.587Z,99993.47
2023-03-21T20:05:23.570Z,99998.53
2023-03-21T20:08:02.236Z,100004.50
2023-03-21T20:10:35.275Z,99994.88
2023-03-21T20:13:08.437Z,99990.22
2023-03-21T20:15:48.038Z,99996.22
2023-03-21T20:18:16.092Z,99988.25
2023-03-21T20:20:45.113Z,99997.34
2023-03-21T20:23:19.608Z,99996.91
2023-03-21T20:25:48.124Z,100002.84
2023-03-21T20:28:29.117Z,99994.34
2023-03-21T20:31:16.892Z,100003.00
2023-03-21T20:33:59.245Z,100002.19
2023-03-21T20:36:39.966Z,100000.66
2023-03-21T20:39:14.031Z,100003.41
2023-03-21T20:41:53.402Z,100009.16
2023-03-21T20:47:38.916Z,100005.31
2023-03-21T20:50:16.773Z,99994.91
2023-03-21T20:53:06.356Z,99999.84
2023-03-21T20:55:34.829Z,99997.47
2023-03-21T20:58:12.910Z,100004.41
2023-03-21T21:00:50.635Z,100008.00
2023-03-21T21:03:17.837Z,100011.53
2023-03-21T21:05:45.420Z,100017.53
2023-03-21T21:08:12.768Z,100006.94
2023-03-21T21:11:02.717Z,100015.00
2023-03-21T21:13:29.463Z,100017.66
2023-03-21T21:15:56.631Z,100015.94
2023-03-21T21:18:26.445Z,100017.78
2023-03-21T21:20:54.743Z,100013.72
2023-03-21T21:23:25.712Z,100015.50
2023-03-21T21:26:14.626Z,100021.66
2023-03-21T21:28:44.862Z,100011.31
2023-03-21T21:31:21.029Z,100021.81
2023-03-21T21:34:20.162Z,100022.84
2023-03-21T21:36:53.004Z,100027.25
2023-03-21T21:39:30.135Z,100030.47
2023-03-21T21:42:00.367Z,100029.00
2023-03-21T21:44:34.964Z,100035.75
2023-03-21T21:47:14.877Z,100029.69
2023-03-21T21:49:49.388Z,100034.56
2023-03-21T21:52:16.662Z,100034.03
2023-03-21T21:54:43.773Z,100030.63
2023-03-21T21:57:11.063Z,100037.38
2023-03-21T21:59:38.199Z,100041.88
2023-03-21T22:02:11.135Z,100041.00
2023-03-21T22:04:38.243Z,100045.41
2023-03-21T22:07:05.733Z,100046.00
2023-03-21T22:09:38.290Z,100052.84
2023-03-21T22:12:05.720Z,100044.69
2023-03-21T22:14:42.012Z,100047.38
2023-03-21T22:17:14.485Z,100058.41
2023-03-21T22:19:43.481Z,100058.34
2023-03-21T22:22:18.048Z,100059.13
2023-03-21T22:24:47.985Z,100059.72
2023-03-21T22:27:18.593Z,100068.72
2023-03-21T22:29:48.939Z,100066.09
2023-03-21T22:32:16.331Z,100059.94
2023-03-21T22:34:43.509Z,100061.28
2023-03-21T22:37:11.251Z,100058.19
2023-03-21T22:39:43.145Z,100058.59
2023-03-21T22:42:12.959Z,100065.44
2023-03-21T22:44:40.405Z,100065.97
2023-03-21T22:47:10.373Z,100064.88
2023-03-21T22:49:40.094Z,100064.31
2023-03-21T22:52:07.291Z,100068.41
2023-03-21T22:54:35.450Z,100067.25
2023-03-21T22:57:06.176Z,100070.25
2023-03-21T22:59:33.298Z,100070.25
2023-03-21T23:02:03.614Z,100065.97
2023-03-21T23:04:34.483Z,100071.25
2023-03-21T23:07:07.780Z,100064.34
2023-03-21T23:09:34.935Z,100059.56
2023-03-21T23:12:02.040Z,100060.06
2023-03-21T23:14:32.576Z,100060.66
2023-03-21T23:17:02.868Z,100070.91
2023-03-21T23:19:30.557Z,100065.09
2023-03-21T23:22:00.378Z,100066.41
2023-03-21T23:24:28.114Z,100070.25
2023-03-21T23:26:57.955Z,100063.38
2023-03-21T23:29:30.503Z,100066.91
2023-03-21T23:32:09.362Z,100065.78
2023-03-21T23:34:36.627Z,100058.44
2023-03-21T23:37:07.232Z,100061.75
2023-03-21T23:39:39.272Z,100063.16
2023-03-21T23:42:06.357Z,100065.09
2023-03-21T23:44:33.546Z,100065.97
2023-03-21T23:47:01.120Z,100055.84
2023-03-21T23:49:31.095Z,100058.53
2023-03-21T23:52:01.322Z,100054.25
2023-03-21T23:54:31.788Z,100050.50
2023-03-21T23:56:59.020Z,100051.09
2023-03-21T23:59:26.256Z,100060.25
